createdAt,value
2022-10-17T00:00:54.450Z,96.90
2022-10-17T00:03:42.445Z,96.25
2022-10-17T00:06:29.694Z,96.96
2022-10-17T00:09:16.806Z,97.28
2022-10-17T00:12:05.138Z,97.68
2022-10-17T00:14:52.846Z,98.18
2022-10-17T00:17:42.147Z,98.20
2022-10-17T00:20:30.407Z,97.93
2022-10-17T00:23:18.635Z,97.52
2022-10-17T00:26:07.203Z,98.39
2022-10-17T00:28:55.354Z,98.62
2022-10-17T00:31:43.220Z,98.12
2022-10-17T00:34:32.533Z,97.36
2022-10-17T00:37:20.393Z,97.52
2022-10-17T00:40:09.667Z,97.25
2022-10-17T00:42:56.787Z,98.05
2022-10-17T00:45:44.167Z,98.02
2022-10-17T00:48:33.030Z,98.27
2022-10-17T00:51:26.185Z,98.43
2022-10-17T00:54:16.174Z,97.70
2022-10-17T00:57:04.727Z,98.52
2022-10-17T00:59:57.134Z,98.85
2022-10-17T01:02:45.128Z,98.93
2022-10-17T01:05:32.529Z,98.86
2022-10-17T01:08:21.273Z,99.30
2022-10-17T01:11:21.978Z,98.67
2022-10-17T01:14:16.527Z,99.08
2022-10-17T01:17:13.159Z,98.38
2022-10-17T01:20:28.707Z,98.58
2022-10-17T01:23:50.479Z,98.32
2022-10-17T01:27:00.416Z,97.42
2022-10-17T01:30:17.055Z,97.69
2022-10-17T01:33:12.119Z,97.96
2022-10-17T01:36:05.774Z,97.78
2022-10-17T01:39:02.256Z,98.10
2022-10-17T01:41:57.987Z,97.72
2022-10-17T01:44:50.506Z,98.65
2022-10-17T01:47:38.286Z,98.54
2022-10-17T01:50:30.822Z,98.49
2022-10-17T01:53:23.225Z,98.60
2022-10-17T01:56:15.516Z,98.42
2022-10-17T01:59:08.451Z,98.87
2022-10-17T02:01:59.375Z,98.85
2022-10-17T02:04:48.931Z,98.30
2022-10-17T02:07:37.686Z,97.99
2022-10-17T02:10:36.756Z,97.77
2022-10-17T02:13:33.184Z,99.29
2022-10-17T02:16:34.300Z,98.51
2022-10-17T02:19:41.127Z,99.56
2022-10-17T02:22:39.028Z,99.49
2022-10-17T02:25:37.145Z,99.01
2022-10-17T02:28:31.239Z,99.04
2022-10-17T02:31:23.794Z,99.25
2022-10-17T02:34:18.203Z,99.18
2022-10-17T02:37:09.567Z,99.29
2022-10-17T02:39:59.491Z,99.84
2022-10-17T02:42:48.706Z,98.95
2022-10-17T02:45:38.432Z,99.92
2022-10-17T02:48:32.338Z,99.85
2022-10-17T02:51:29.481Z,100.00
2022-10-17T02:54:23.136Z,100.00
2022-10-17T02:57:17.576Z,99.46
2022-10-17T03:00:10.205Z,99.90
2022-10-17T03:02:57.956Z,99.40
2022-10-17T03:05:45.739Z,99.93
2022-10-17T03:08:33.213Z,100.00
2022-10-17T03:11:20.997Z,99.78
2022-10-17T03:14:08.577Z,100.00
2022-10-17T03:16:57.710Z,99.70
2022-10-17T03:19:46.697Z,99.99
2022-10-17T03:22:35.585Z,100.00
2022-10-17T03:25:24.816Z,100.00
2022-10-17T03:28:13.257Z,100.00
2022-10-17T03:31:00.570Z,99.93
2022-10-17T03:33:49.957Z,99.54
2022-10-17T03:36:37.366Z,100.00
2022-10-17T03:39:24.825Z,100.00
2022-10-17T03:42:12.533Z,99.50
2022-10-17T03:45:00.113Z,100.00
2022-10-17T03:47:48.147Z,100.00
2022-10-17T03:50:37.589Z,100.00
2022-10-17T03:53:25.101Z,100.00
2022-10-17T03:56:15.093Z,99.46
2022-10-17T03:59:03.364Z,99.91
2022-10-17T04:01:53.847Z,99.34
2022-10-17T04:04:42.493Z,100.00
2022-10-17T04:07:31.375Z,99.79
2022-10-17T04:10:19.307Z,99.46
2022-10-17T04:13:08.330Z,99.71
2022-10-17T04:15:56.407Z,100.00
2022-10-17T04:18:44.130Z,99.78
2022-10-17T04:21:32.681Z,100.00
2022-10-17T04:24:26.712Z,100.00
2022-10-17T04:27:34.376Z,100.00
2022-10-17T04:30:22.082Z,99.49
2022-10-17T04:33:09.379Z,100.00
2022-10-17T04:35:58.199Z,100.00
2022-10-17T04:38:46.115Z,100.00
2022-10-17T04:41:35.576Z,100.00
2022-10-17T04:44:23.149Z,99.78
2022-10-17T04:47:12.432Z,99.73
2022-10-17T04:50:00.046Z,100.00
2022-10-17T04:52:47.546Z,99.62
2022-10-17T04:55:39.507Z,99.86
2022-10-17T04:58:30.219Z,99.17
2022-10-17T05:01:19.789Z,100.00
2022-10-17T05:04:12.042Z,100.00
2022-10-17T05:06:59.502Z,99.58
2022-10-17T05:10:22.239Z,99.55
2022-10-17T05:13:12.923Z,99.64
2022-10-17T05:16:03.006Z,99.82
2022-10-17T05:18:52.958Z,100.00
2022-10-17T05:21:41.265Z,100.00
2022-10-17T05:24:28.433Z,99.93
2022-10-17T05:27:15.483Z,99.90
2022-10-17T05:30:03.125Z,99.42
2022-10-17T05:32:56.251Z,99.86
2022-10-17T05:35:43.879Z,99.93
2022-10-17T05:38:31.423Z,99.43
2022-10-17T05:41:20.111Z,99.47
2022-10-17T05:44:08.026Z,99.22
2022-10-17T05:47:00.964Z,98.53
2022-10-17T05:49:52.519Z,99.67
2022-10-17T05:52:47.333Z,99.33
2022-10-17T05:55:36.925Z,99.54
2022-10-17T05:58:45.490Z,99.75
2022-10-17T06:01:41.971Z,99.68
2022-10-17T06:04:29.724Z,100.00
2022-10-17T06:07:18.685Z,99.50
2022-10-17T06:10:07.718Z,99.01
2022-10-17T06:12:56.684Z,98.24
2022-10-17T06:15:45.315Z,99.39
2022-10-17T06:18:32.181Z,99.83
2022-10-17T06:21:23.512Z,99.53
2022-10-17T06:24:13.876Z,99.84
2022-10-17T06:27:02.751Z,100.00
2022-10-17T06:29:51.385Z,100.00
2022-10-17T06:32:38.700Z,99.48
2022-10-17T06:35:26.890Z,99.79
2022-10-17T06:38:14.120Z,99.13
2022-10-17T06:41:08.842Z,98.45
2022-10-17T06:43:56.254Z,98.16
2022-10-17T06:47:02.866Z,98.15
2022-10-17T06:49:50.164Z,98.04
2022-10-17T06:53:03.855Z,96.46
2022-10-17T06:56:11.583Z,95.73
2022-10-17T06:59:19.273Z,94.88
2022-10-17T07:02:15.199Z,93.83
2022-10-17T07:05:04.023Z,93.32
2022-10-17T07:07:52.049Z,92.37
2022-10-17T07:10:39.726Z,92.55
2022-10-17T07:13:29.796Z,93.21
2022-10-17T07:16:17.889Z,92.85
2022-10-17T07:19:09.173Z,93.49
2022-10-17T07:21:58.716Z,93.20
2022-10-17T07:24:46.643Z,94.58
2022-10-17T07:27:57.990Z,94.16
2022-10-17T07:30:50.678Z,95.12
2022-10-17T07:33:41.764Z,94.51
2022-10-17T07:36:30.135Z,93.18
2022-10-17T07:39:18.500Z,93.10
2022-10-17T07:42:07.649Z,93.06
2022-10-17T07:44:56.505Z,92.53
2022-10-17T07:47:47.963Z,92.35
2022-10-17T07:50:36.237Z,91.53
2022-10-17T07:53:24.043Z,90.98
2022-10-17T07:56:11.537Z,90.18
2022-10-17T07:59:00.831Z,90.33
2022-10-17T08:01:50.829Z,90.08
2022-10-17T08:04:40.016Z,89.45
2022-10-17T08:07:29.427Z,88.68
2022-10-17T08:10:17.967Z,89.69
2022-10-17T08:13:05.226Z,88.63
2022-10-17T08:15:52.798Z,89.64
2022-10-17T08:18:41.388Z,88.94
2022-10-17T08:21:31.346Z,88.70
2022-10-17T08:24:18.547Z,89.46
2022-10-17T08:27:11.715Z,89.46
2022-10-17T08:29:59.060Z,89.22
2022-10-17T08:32:46.333Z,88.22
2022-10-17T08:35:34.041Z,88.84
2022-10-17T08:38:26.189Z,88.44
2022-10-17T08:41:32.077Z,87.99
2022-10-17T08:44:30.402Z,88.32
2022-10-17T08:47:23.837Z,88.93
2022-10-17T08:50:18.469Z,87.35
2022-10-17T08:53:14.067Z,86.75
2022-10-17T08:56:19.477Z,86.17
2022-10-17T08:59:13.851Z,84.57
2022-10-17T09:02:13.984Z,83.83
2022-10-17T09:05:17.122Z,83.28
2022-10-17T09:08:19.912Z,82.85
2022-10-17T09:11:17.494Z,83.67
2022-10-17T09:14:15.606Z,84.44
2022-10-17T09:17:17.110Z,84.30
2022-10-17T09:20:11.209Z,84.75
2022-10-17T09:23:02.493Z,83.34
2022-10-17T09:25:54.173Z,83.59
2022-10-17T09:28:44.209Z,83.32
2022-10-17T09:31:41.011Z,81.83
2022-10-17T09:34:30.364Z,82.90
2022-10-17T09:37:19.199Z,81.13
2022-10-17T09:40:10.076Z,80.77
2022-10-17T09:42:57.433Z,78.86
2022-10-17T09:45:55.822Z,79.92
2022-10-17T09:48:49.814Z,78.50
2022-10-17T09:51:40.804Z,76.76
2022-10-17T09:54:41.104Z,77.53
2022-10-17T09:57:28.713Z,79.44
2022-10-17T10:00:23.354Z,77.71
2022-10-17T10:03:16.900Z,76.75
2022-10-17T10:06:06.590Z,76.85
2022-10-17T10:08:56.107Z,76.27
2022-10-17T10:11:50.065Z,74.72
2022-10-17T10:14:39.956Z,75.08
2022-10-17T10:17:39.804Z,72.05
2022-10-17T10:20:31.854Z,70.25
2022-10-17T10:23:22.208Z,68.75
2022-10-17T10:26:34.076Z,68.92
2022-10-17T10:29:26.855Z,67.51
2022-10-17T10:32:21.568Z,67.34
2022-10-17T10:35:20.327Z,66.21
2022-10-17T10:38:16.957Z,66.65
2022-10-17T10:41:07.423Z,65.47
2022-10-17T10:43:57.327Z,64.39
2022-10-17T10:46:45.431Z,64.53
2022-10-17T10:49:33.983Z,64.48
2022-10-17T10:52:30.906Z,63.86
2022-10-17T10:55:25.844Z,65.16
2022-10-17T10:58:25.524Z,64.82
2022-10-17T11:01:21.531Z,65.99
2022-10-17T11:04:22.820Z,66.55
2022-10-17T11:07:15.696Z,65.07
2022-10-17T11:10:13.546Z,66.31
2022-10-17T11:13:06.966Z,67.09
2022-10-17T11:16:00.409Z,66.46
2022-10-17T11:18:52.472Z,68.29
2022-10-17T11:21:46.574Z,66.79
2022-10-17T11:24:39.509Z,66.46
2022-10-17T11:27:29.117Z,66.14
2022-10-17T11:30:18.665Z,67.47
2022-10-17T11:33:07.136Z,68.07
2022-10-17T11:35:58.942Z,68.45
2022-10-17T11:38:50.027Z,67.73
2022-10-17T11:41:43.403Z,67.73
2022-10-17T11:44:36.279Z,69.06
2022-10-17T11:47:33.841Z,69.23
2022-10-17T11:53:46.256Z,69.59
2022-10-17T11:56:42.758Z,69.65
2022-10-17T11:59:50.265Z,70.40
2022-10-17T12:02:47.537Z,69.02
2022-10-17T12:05:41.488Z,68.69
2022-10-17T12:08:37.923Z,70.00
2022-10-17T12:11:35.706Z,69.17
2022-10-17T12:14:38.996Z,69.59
2022-10-17T12:17:33.186Z,70.31
2022-10-17T12:20:31.788Z,68.35
2022-10-17T12:23:30.061Z,69.52
2022-10-17T12:26:27.427Z,70.43
2022-10-17T12:29:28.606Z,71.55
2022-10-17T12:32:17.042Z,72.07
2022-10-17T12:35:04.877Z,72.15
2022-10-17T12:38:26.375Z,69.96
2022-10-17T12:41:13.710Z,70.34
2022-10-17T12:44:01.563Z,70.67
2022-10-17T12:46:52.103Z,70.98
2022-10-17T12:49:42.160Z,71.00
2022-10-17T12:52:59.777Z,71.93
2022-10-17T12:55:51.992Z,69.91
2022-10-17T12:58:46.219Z,70.35
2022-10-17T13:01:38.589Z,71.34
2022-10-17T13:04:27.921Z,72.87
2022-10-17T13:07:20.768Z,72.73
2022-10-17T13:10:20.425Z,72.23
2022-10-17T13:13:17.275Z,73.04
2022-10-17T13:16:05.328Z,73.82
2022-10-17T13:18:53.976Z,73.38
2022-10-17T13:21:51.301Z,74.15
2022-10-17T13:24:40.738Z,73.36
2022-10-17T13:27:30.811Z,72.22
2022-10-17T13:30:30.904Z,72.23
2022-10-17T13:33:33.502Z,73.24
2022-10-17T13:36:21.357Z,73.11
2022-10-17T13:39:12.442Z,72.71
2022-10-17T13:42:02.451Z,73.10
2022-10-17T13:44:50.106Z,72.79
2022-10-17T13:47:40.831Z,74.03
2022-10-17T13:50:51.161Z,74.18
2022-10-17T13:53:44.033Z,73.19
2022-10-17T13:56:32.338Z,72.27
2022-10-17T13:59:25.387Z,72.86
2022-10-17T14:02:17.018Z,73.30
2022-10-17T14:05:18.204Z,72.89
2022-10-17T14:08:18.018Z,73.47
2022-10-17T14:11:26.506Z,74.28
2022-10-17T14:14:20.649Z,72.44
2022-10-17T14:17:15.044Z,71.39
2022-10-17T14:23:44.666Z,72.50
2022-10-17T14:26:37.054Z,72.55
2022-10-17T14:29:26.901Z,73.45
2022-10-17T14:32:16.141Z,74.26
2022-10-17T14:35:41.116Z,73.83
2022-10-17T14:38:16.045Z,72.71
2022-10-17T14:41:37.827Z,72.75
2022-10-17T14:44:22.063Z,73.52
2022-10-17T14:47:42.325Z,73.58
2022-10-17T14:50:32.062Z,73.65
2022-10-17T14:53:23.200Z,74.01
2022-10-17T14:56:24.307Z,75.10
2022-10-17T14:59:21.388Z,75.21
2022-10-17T15:02:14.315Z,75.22
2022-10-17T15:05:01.718Z,75.91
2022-10-17T15:07:50.650Z,76.40
2022-10-17T15:10:41.858Z,75.68
2022-10-17T15:13:32.139Z,75.16
2022-10-17T15:16:25.063Z,75.97
2022-10-17T15:19:14.904Z,74.86
2022-10-17T15:22:02.497Z,75.85
2022-10-17T15:24:51.395Z,75.61
2022-10-17T15:27:39.278Z,76.42
2022-10-17T15:30:28.708Z,76.33
2022-10-17T15:33:16.093Z,76.94
2022-10-17T15:36:03.455Z,77.21
2022-10-17T15:38:50.565Z,77.03
2022-10-17T15:41:39.986Z,77.33
2022-10-17T15:44:27.220Z,77.65
2022-10-17T15:47:23.976Z,78.03
2022-10-17T15:50:15.934Z,78.02
2022-10-17T15:53:03.873Z,77.23
2022-10-17T15:55:52.095Z,77.29
2022-10-17T15:58:41.682Z,77.81
2022-10-17T16:01:31.956Z,78.45
2022-10-17T16:04:19.538Z,78.49
2022-10-17T16:07:07.321Z,78.44
2022-10-17T16:09:55.119Z,78.83
2022-10-17T16:12:43.541Z,77.86
2022-10-17T16:15:32.550Z,77.71
2022-10-17T16:18:21.225Z,77.74
2022-10-17T16:21:11.606Z,77.42
2022-10-17T16:24:00.569Z,77.90
2022-10-17T16:26:48.146Z,77.47
2022-10-17T16:29:35.350Z,77.97
2022-10-17T16:32:24.579Z,77.73
2022-10-17T16:35:17.750Z,78.74
2022-10-17T16:38:04.914Z,78.72
2022-10-17T16:40:53.066Z,79.03
2022-10-17T16:43:41.425Z,79.25
2022-10-17T16:46:30.183Z,79.43
2022-10-17T16:49:19.127Z,79.79
2022-10-17T16:52:07.385Z,80.87
2022-10-17T16:54:55.057Z,81.72
2022-10-17T17:00:40.507Z,84.21
2022-10-17T17:03:28.147Z,85.16
2022-10-17T17:06:19.578Z,86.35
2022-10-17T17:09:07.120Z,86.78
2022-10-17T17:11:54.961Z,87.24
2022-10-17T17:14:42.624Z,88.06
2022-10-17T17:17:44.222Z,88.81
2022-10-17T17:20:36.624Z,89.16
2022-10-17T17:23:25.827Z,89.64
2022-10-17T17:26:15.626Z,89.58
2022-10-17T17:29:03.461Z,89.74
2022-10-17T17:31:52.046Z,90.83
2022-10-17T17:34:39.493Z,91.35
2022-10-17T17:37:28.538Z,91.54
2022-10-17T17:40:17.997Z,91.87
2022-10-17T17:43:05.431Z,92.75
2022-10-17T17:45:53.071Z,93.39
2022-10-17T17:48:42.715Z,93.97
2022-10-17T17:51:30.616Z,93.91
2022-10-17T17:54:18.425Z,95.24
2022-10-17T17:57:08.563Z,95.12
2022-10-17T17:59:56.317Z,95.66
2022-10-17T18:02:44.559Z,95.27
2022-10-17T18:05:32.426Z,96.48
2022-10-17T18:08:19.967Z,97.20
2022-10-17T18:11:07.839Z,97.29
2022-10-17T18:13:57.867Z,97.22
2022-10-17T18:16:45.611Z,96.77
2022-10-17T18:19:32.856Z,97.24
2022-10-17T18:22:20.426Z,97.24
2022-10-17T18:25:09.050Z,97.36
2022-10-17T18:27:56.757Z,96.77
2022-10-17T18:30:45.536Z,97.59
2022-10-17T18:33:32.948Z,97.10
2022-10-17T18:36:21.016Z,97.10
2022-10-17T18:39:08.317Z,98.00
2022-10-17T18:41:55.662Z,98.03
2022-10-17T18:44:43.875Z,98.83
2022-10-17T18:47:33.272Z,98.39
2022-10-17T18:50:21.198Z,98.07
2022-10-17T18:53:08.458Z,97.89
2022-10-17T18:55:56.587Z,97.88
2022-10-17T18:58:44.661Z,97.74
2022-10-17T19:01:32.811Z,98.24
2022-10-17T19:04:21.913Z,97.97
2022-10-17T19:07:09.695Z,98.40
2022-10-17T19:09:57.121Z,98.51
2022-10-17T19:12:44.690Z,98.90
2022-10-17T19:15:32.529Z,99.41
2022-10-17T19:18:19.912Z,99.29
2022-10-17T19:21:10.657Z,99.78
2022-10-17T19:24:00.373Z,99.63
2022-10-17T19:26:50.225Z,98.91
2022-10-17T19:29:37.698Z,100.00
2022-10-17T19:32:26.438Z,100.00
2022-10-17T19:35:14.019Z,100.00
2022-10-17T19:38:03.286Z,100.00
2022-10-17T19:40:50.973Z,100.00
2022-10-17T19:43:38.907Z,100.00
2022-10-17T19:46:29.478Z,100.00
2022-10-17T19:49:17.296Z,100.00
2022-10-17T19:52:05.323Z,100.00
2022-10-17T19:54:54.592Z,100.00
2022-10-17T19:57:41.887Z,100.00
2022-10-17T20:00:29.747Z,100.00
2022-10-17T20:03:17.105Z,100.00
2022-10-17T20:06:04.740Z,100.00
2022-10-17T20:08:52.849Z,100.00
2022-10-17T20:11:42.022Z,100.00
2022-10-17T20:14:29.655Z,100.00
2022-10-17T20:17:17.258Z,100.00
2022-10-17T20:20:08.602Z,99.68
2022-10-17T20:22:56.383Z,99.86
2022-10-17T20:25:44.496Z,100.00
2022-10-17T20:28:34.013Z,100.00
2022-10-17T20:31:22.568Z,100.00
2022-10-17T20:34:14.464Z,100.00
2022-10-17T20:37:02.555Z,100.00
2022-10-17T20:39:59.930Z,100.00
2022-10-17T20:42:57.628Z,99.98
2022-10-17T20:45:51.188Z,100.00
2022-10-17T20:48:39.717Z,99.65
2022-10-17T20:51:27.167Z,100.00
2022-10-17T20:54:14.859Z,100.00
2022-10-17T20:57:04.796Z,100.00
2022-10-17T20:59:52.608Z,99.52
2022-10-17T21:02:41.705Z,99.73
2022-10-17T21:05:29.262Z,99.89
2022-10-17T21:08:16.366Z,100.00
2022-10-17T21:11:11.864Z,100.00
2022-10-17T21:14:01.218Z,100.00
2022-10-17T21:16:49.406Z,100.00
2022-10-17T21:19:38.393Z,100.00
2022-10-17T21:22:26.062Z,99.22
2022-10-17T21:25:13.329Z,99.17
2022-10-17T21:28:00.719Z,99.59
2022-10-17T21:30:49.481Z,100.00
2022-10-17T21:33:36.887Z,100.00
2022-10-17T21:36:26.691Z,100.00
2022-10-17T21:39:15.549Z,100.00
2022-10-17T21:42:03.056Z,100.00
2022-10-17T21:44:50.012Z,100.00
2022-10-17T21:47:38.560Z,100.00
2022-10-17T21:50:26.139Z,100.00
2022-10-17T21:53:15.277Z,100.00
2022-10-17T21:56:03.987Z,100.00
2022-10-17T21:58:52.154Z,100.00
2022-10-17T22:01:41.757Z,100.00
2022-10-17T22:04:28.956Z,100.00
2022-10-17T22:07:16.716Z,100.00
2022-10-17T22:10:06.390Z,100.00
2022-10-17T22:12:53.910Z,100.00
2022-10-17T22:15:41.483Z,99.92
2022-10-17T22:18:28.743Z,100.00
2022-10-17T22:21:19.340Z,99.41
2022-10-17T22:24:12.005Z,100.00
2022-10-17T22:27:00.480Z,100.00
2022-10-17T22:29:48.008Z,100.00
2022-10-17T22:32:35.165Z,100.00
2022-10-17T22:35:22.351Z,100.00
2022-10-17T22:38:10.186Z,100.00
2022-10-17T22:40:57.162Z,100.00
2022-10-17T22:43:46.300Z,99.91
2022-10-17T22:46:33.961Z,99.87
2022-10-17T22:49:21.256Z,100.00
2022-10-17T22:52:08.762Z,100.00
2022-10-17T22:54:56.246Z,99.47
2022-10-17T22:57:43.928Z,99.11
2022-10-17T23:00:32.747Z,100.00
2022-10-17T23:03:21.836Z,100.00
2022-10-17T23:06:09.596Z,100.00
2022-10-17T23:08:56.829Z,100.00
2022-10-17T23:11:44.283Z,100.00
2022-10-17T23:14:31.686Z,100.00
2022-10-17T23:17:19.996Z,100.00
2022-10-17T23:20:08.792Z,100.00
2022-10-17T23:22:56.326Z,100.00
2022-10-17T23:25:44.029Z,100.00
2022-10-17T23:28:33.608Z,100.00
2022-10-17T23:31:23.055Z,100.00
2022-10-17T23:34:12.316Z,100.00
2022-10-17T23:36:59.477Z,100.00
2022-10-17T23:39:47.295Z,100.00
2022-10-17T23:42:34.782Z,100.00
2022-10-17T23:45:22.476Z,100.00
2022-10-17T23:48:09.691Z,100.00
2022-10-17T23:50:59.227Z,100.00
2022-10-17T23:53:46.762Z,100.00
2022-10-17T23:56:34.161Z,100.00
2022-10-17T23:59:21.725Z,100.00
